sensor_id;sensor_type;location;lat;lon;timestamp;P1;durP1;ratioP1;P2;durP2;ratioP2
23745;SDS011;12053;48.878;9.632;2022-09-09T00:04:28;3.20;;;1.13;;
23745;SDS011;12053;48.878;9.632;2022-09-09T00:09:45;5.60;;;1.40;;
23745;SDS011;12053;48.878;9.632;2022-09-09T00:12:20;4.43;;;1.50;;
23745;SDS011;12053;48.878;9.632;2022-09-09T00:17:22;4.93;;;1.25;;
23745;SDS011;12053;48.878;9.632;2022-09-09T00:19:54;3.67;;;1.42;;
23745;SDS011;12053;48.878;9.632;2022-09-09T00:22:23;3.00;;;1.40;;
23745;SDS011;12053;48.878;9.632;2022-09-09T00:24:53;2.85;;;1.00;;
23745;SDS011;12053;48.878;9.632;2022-09-09T00:27:38;5.40;;;1.30;;
23745;SDS011;12053;48.878;9.632;2022-09-09T00:32:40;4.25;;;1.55;;
23745;SDS011;12053;48.878;9.632;2022-09-09T00:35:18;2.97;;;1.23;;
23745;SDS011;12053;48.878;9.632;2022-09-09T00:37:48;5.65;;;1.55;;
23745;SDS011;12053;48.878;9.632;2022-09-09T00:40:39;3.30;;;1.20;;
23745;SDS011;12053;48.878;9.632;2022-09-09T00:43:09;6.38;;;1.23;;
23745;SDS011;12053;48.878;9.632;2022-09-09T00:45:50;3.05;;;1.30;;
23745;SDS011;12053;48.878;9.632;2022-09-09T00:48:19;7.28;;;1.60;;
23745;SDS011;12053;48.878;9.632;2022-09-09T00:50:59;2.30;;;1.10;;
23745;SDS011;12053;48.878;9.632;2022-09-09T00:58:32;2.35;;;1.13;;
23745;SDS011;12053;48.878;9.632;2022-09-09T01:01:03;2.92;;;1.13;;
23745;SDS011;12053;48.878;9.632;2022-09-09T01:03:53;5.93;;;1.30;;
23745;SDS011;12053;48.878;9.632;2022-09-09T01:13:49;10.05;;;1.50;;
23745;SDS011;12053;48.878;9.632;2022-09-09T01:16:19;1.98;;;1.13;;
23745;SDS011;12053;48.878;9.632;2022-09-09T01:18:48;5.68;;;1.52;;
23745;SDS011;12053;48.878;9.632;2022-09-09T01:26:21;5.15;;;1.50;;
23745;SDS011;12053;48.878;9.632;2022-09-09T01:28:51;3.88;;;1.17;;
23745;SDS011;12053;48.878;9.632;2022-09-09T01:34:18;4.22;;;1.50;;
23745;SDS011;12053;48.878;9.632;2022-09-09T01:36:46;2.83;;;1.13;;
23745;SDS011;12053;48.878;9.632;2022-09-09T01:39:17;5.40;;;1.40;;
23745;SDS011;12053;48.878;9.632;2022-09-09T01:41:44;2.28;;;1.00;;
23745;SDS011;12053;48.878;9.632;2022-09-09T01:44:11;5.68;;;1.55;;
23745;SDS011;12053;48.878;9.632;2022-09-09T01:46:38;2.22;;;1.17;;
23745;SDS011;12053;48.878;9.632;2022-09-09T01:49:06;5.72;;;1.27;;
23745;SDS011;12053;48.878;9.632;2022-09-09T01:51:35;1.83;;;1.13;;
23745;SDS011;12053;48.878;9.632;2022-09-09T01:54:03;4.15;;;1.35;;
23745;SDS011;12053;48.878;9.632;2022-09-09T02:03:58;4.20;;;1.60;;
23745;SDS011;12053;48.878;9.632;2022-09-09T02:06:28;2.03;;;1.30;;
23745;SDS011;12053;48.878;9.632;2022-09-09T02:08:57;2.63;;;1.30;;
23745;SDS011;12053;48.878;9.632;2022-09-09T02:11:26;2.40;;;1.20;;
23745;SDS011;12053;48.878;9.632;2022-09-09T02:13:55;3.83;;;1.42;;
23745;SDS011;12053;48.878;9.632;2022-09-09T02:19:23;2.83;;;1.15;;
23745;SDS011;12053;48.878;9.632;2022-09-09T02:24:20;2.30;;;1.33;;
23745;SDS011;12053;48.878;9.632;2022-09-09T02:26:48;3.35;;;1.27;;
23745;SDS011;12053;48.878;9.632;2022-09-09T02:29:17;3.70;;;1.42;;
23745;SDS011;12053;48.878;9.632;2022-09-09T02:31:45;2.95;;;1.35;;
23745;SDS011;12053;48.878;9.632;2022-09-09T02:34:14;3.85;;;1.30;;
23745;SDS011;12053;48.878;9.632;2022-09-09T02:36:42;3.25;;;1.00;;
23745;SDS011;12053;48.878;9.632;2022-09-09T02:39:11;5.35;;;1.30;;
23745;SDS011;12053;48.878;9.632;2022-09-09T02:41:40;3.22;;;1.58;;
23745;SDS011;12053;48.878;9.632;2022-09-09T02:44:14;4.00;;;1.42;;
23745;SDS011;12053;48.878;9.632;2022-09-09T02:49:28;3.20;;;1.38;;
23745;SDS011;12053;48.878;9.632;2022-09-09T02:52:01;2.67;;;1.20;;
23745;SDS011;12053;48.878;9.632;2022-09-09T02:54:30;3.92;;;1.40;;
23745;SDS011;12053;48.878;9.632;2022-09-09T02:57:05;3.30;;;1.17;;
23745;SDS011;12053;48.878;9.632;2022-09-09T02:59:33;4.05;;;1.00;;
23745;SDS011;12053;48.878;9.632;2022-09-09T03:02:00;2.78;;;1.10;;
23745;SDS011;12053;48.878;9.632;2022-09-09T03:04:28;3.38;;;1.02;;
23745;SDS011;12053;48.878;9.632;2022-09-09T03:06:56;1.83;;;0.80;;
23745;SDS011;12053;48.878;9.632;2022-09-09T03:09:24;5.63;;;0.98;;
23745;SDS011;12053;48.878;9.632;2022-09-09T03:11:52;5.78;;;1.20;;
23745;SDS011;12053;48.878;9.632;2022-09-09T03:14:21;3.85;;;0.77;;
23745;SDS011;12053;48.878;9.632;2022-09-09T03:16:51;1.75;;;1.08;;
23745;SDS011;12053;48.878;9.632;2022-09-09T03:19:18;2.13;;;0.95;;
23745;SDS011;12053;48.878;9.632;2022-09-09T03:21:46;3.42;;;1.20;;
23745;SDS011;12053;48.878;9.632;2022-09-09T03:24:13;4.97;;;1.05;;
23745;SDS011;12053;48.878;9.632;2022-09-09T03:26:41;4.88;;;1.23;;
23745;SDS011;12053;48.878;9.632;2022-09-09T03:29:11;1.48;;;0.75;;
23745;SDS011;12053;48.878;9.632;2022-09-09T03:31:39;6.38;;;1.42;;
23745;SDS011;12053;48.878;9.632;2022-09-09T03:34:06;3.25;;;1.10;;
23745;SDS011;12053;48.878;9.632;2022-09-09T03:36:33;4.95;;;1.13;;
23745;SDS011;12053;48.878;9.632;2022-09-09T03:39:01;3.53;;;1.00;;
23745;SDS011;12053;48.878;9.632;2022-09-09T03:41:29;4.22;;;1.15;;
23745;SDS011;12053;48.878;9.632;2022-09-09T03:43:56;3.05;;;1.02;;
23745;SDS011;12053;48.878;9.632;2022-09-09T03:46:24;3.88;;;1.30;;
23745;SDS011;12053;48.878;9.632;2022-09-09T03:48:51;2.90;;;1.08;;
23745;SDS011;12053;48.878;9.632;2022-09-09T03:51:19;5.97;;;1.27;;
23745;SDS011;12053;48.878;9.632;2022-09-09T03:53:47;4.30;;;1.02;;
23745;SDS011;12053;48.878;9.632;2022-09-09T03:56:15;2.85;;;0.98;;
23745;SDS011;12053;48.878;9.632;2022-09-09T03:58:42;4.65;;;1.02;;
23745;SDS011;12053;48.878;9.632;2022-09-09T04:01:10;3.05;;;1.20;;
23745;SDS011;12053;48.878;9.632;2022-09-09T04:03:40;6.68;;;1.48;;
23745;SDS011;12053;48.878;9.632;2022-09-09T04:06:07;3.03;;;1.10;;
23745;SDS011;12053;48.878;9.632;2022-09-09T04:08:35;4.43;;;1.15;;
23745;SDS011;12053;48.878;9.632;2022-09-09T04:11:04;2.22;;;1.00;;
23745;SDS011;12053;48.878;9.632;2022-09-09T04:13:35;2.83;;;1.20;;
23745;SDS011;12053;48.878;9.632;2022-09-09T04:16:06;1.65;;;0.73;;
23745;SDS011;12053;48.878;9.632;2022-09-09T04:18:34;2.17;;;1.08;;
23745;SDS011;12053;48.878;9.632;2022-09-09T04:21:01;2.33;;;0.88;;
23745;SDS011;12053;48.878;9.632;2022-09-09T04:23:29;3.60;;;1.10;;
23745;SDS011;12053;48.878;9.632;2022-09-09T04:25:57;4.32;;;1.10;;
23745;SDS011;12053;48.878;9.632;2022-09-09T04:28:25;2.80;;;0.93;;
23745;SDS011;12053;48.878;9.632;2022-09-09T04:30:52;4.13;;;0.68;;
23745;SDS011;12053;48.878;9.632;2022-09-09T04:33:20;3.30;;;1.00;;
23745;SDS011;12053;48.878;9.632;2022-09-09T04:35:47;2.47;;;0.90;;
23745;SDS011;12053;48.878;9.632;2022-09-09T04:38:16;3.78;;;0.93;;
23745;SDS011;12053;48.878;9.632;2022-09-09T04:40:46;2.38;;;0.90;;
23745;SDS011;12053;48.878;9.632;2022-09-09T04:43:14;1.80;;;0.80;;
23745;SDS011;12053;48.878;9.632;2022-09-09T04:45:42;2.30;;;0.80;;
23745;SDS011;12053;48.878;9.632;2022-09-09T04:48:09;2.13;;;1.00;;
23745;SDS011;12053;48.878;9.632;2022-09-09T04:50:36;1.55;;;0.80;;
23745;SDS011;12053;48.878;9.632;2022-09-09T04:53:04;1.63;;;0.90;;
23745;SDS011;12053;48.878;9.632;2022-09-09T04:55:31;3.85;;;0.77;;
23745;SDS011;12053;48.878;9.632;2022-09-09T04:58:03;2.22;;;0.98;;
23745;SDS011;12053;48.878;9.632;2022-09-09T05:00:30;2.22;;;0.90;;
23745;SDS011;12053;48.878;9.632;2022-09-09T05:02:58;5.70;;;1.02;;
23745;SDS011;12053;48.878;9.632;2022-09-09T05:05:25;3.47;;;1.00;;
23745;SDS011;12053;48.878;9.632;2022-09-09T05:07:52;3.78;;;1.20;;
23745;SDS011;12053;48.878;9.632;2022-09-09T05:10:19;1.80;;;0.90;;
23745;SDS011;12053;48.878;9.632;2022-09-09T05:12:52;2.22;;;0.90;;
23745;SDS011;12053;48.878;9.632;2022-09-09T05:15:20;6.47;;;1.23;;
23745;SDS011;12053;48.878;9.632;2022-09-09T05:17:47;4.20;;;1.77;;
23745;SDS011;12053;48.878;9.632;2022-09-09T05:20:14;2.83;;;1.05;;
23745;SDS011;12053;48.878;9.632;2022-09-09T05:22:42;4.43;;;1.67;;
23745;SDS011;12053;48.878;9.632;2022-09-09T05:25:09;2.28;;;0.90;;
23745;SDS011;12053;48.878;9.632;2022-09-09T05:27:37;3.80;;;1.00;;
23745;SDS011;12053;48.878;9.632;2022-09-09T05:30:04;2.50;;;1.50;;
23745;SDS011;12053;48.878;9.632;2022-09-09T05:32:31;7.00;;;2.22;;
23745;SDS011;12053;48.878;9.632;2022-09-09T05:34:59;3.65;;;1.38;;
23745;SDS011;12053;48.878;9.632;2022-09-09T05:37:27;2.65;;;1.10;;
23745;SDS011;12053;48.878;9.632;2022-09-09T05:39:56;2.75;;;1.00;;
23745;SDS011;12053;48.878;9.632;2022-09-09T05:42:24;3.35;;;1.15;;
23745;SDS011;12053;48.878;9.632;2022-09-09T05:44:51;3.17;;;1.10;;
23745;SDS011;12053;48.878;9.632;2022-09-09T05:47:20;5.43;;;1.38;;
23745;SDS011;12053;48.878;9.632;2022-09-09T05:49:47;6.22;;;1.35;;
23745;SDS011;12053;48.878;9.632;2022-09-09T05:52:15;2.63;;;1.20;;
23745;SDS011;12053;48.878;9.632;2022-09-09T05:54:42;4.95;;;1.08;;
23745;SDS011;12053;48.878;9.632;2022-09-09T05:57:09;4.25;;;1.15;;
23745;SDS011;12053;48.878;9.632;2022-09-09T05:59:37;5.60;;;1.15;;
23745;SDS011;12053;48.878;9.632;2022-09-09T06:02:04;4.88;;;1.20;;
23745;SDS011;12053;48.878;9.632;2022-09-09T06:04:31;5.68;;;1.33;;
23745;SDS011;12053;48.878;9.632;2022-09-09T06:06:59;6.72;;;1.58;;
23745;SDS011;12053;48.878;9.632;2022-09-09T06:09:27;2.50;;;1.20;;
23745;SDS011;12053;48.878;9.632;2022-09-09T06:11:54;2.95;;;1.30;;
23745;SDS011;12053;48.878;9.632;2022-09-09T06:14:21;2.90;;;1.40;;
23745;SDS011;12053;48.878;9.632;2022-09-09T06:16:48;3.53;;;1.00;;
23745;SDS011;12053;48.878;9.632;2022-09-09T06:19:15;5.53;;;1.55;;
23745;SDS011;12053;48.878;9.632;2022-09-09T06:21:42;2.40;;;1.00;;
23745;SDS011;12053;48.878;9.632;2022-09-09T06:24:10;2.10;;;0.95;;
23745;SDS011;12053;48.878;9.632;2022-09-09T06:26:40;3.40;;;1.05;;
23745;SDS011;12053;48.878;9.632;2022-09-09T06:29:07;5.78;;;1.48;;
23745;SDS011;12053;48.878;9.632;2022-09-09T06:31:35;5.70;;;1.60;;
23745;SDS011;12053;48.878;9.632;2022-09-09T06:34:06;5.13;;;1.23;;
23745;SDS011;12053;48.878;9.632;2022-09-09T06:36:34;2.70;;;1.17;;
23745;SDS011;12053;48.878;9.632;2022-09-09T06:39:02;2.53;;;1.10;;
23745;SDS011;12053;48.878;9.632;2022-09-09T06:41:30;2.80;;;1.15;;
23745;SDS011;12053;48.878;9.632;2022-09-09T06:43:57;3.92;;;1.08;;
23745;SDS011;12053;48.878;9.632;2022-09-09T06:46:26;4.57;;;1.20;;
23745;SDS011;12053;48.878;9.632;2022-09-09T06:48:54;5.50;;;1.48;;
23745;SDS011;12053;48.878;9.632;2022-09-09T06:51:22;3.75;;;1.05;;
23745;SDS011;12053;48.878;9.632;2022-09-09T06:53:50;2.08;;;1.02;;
23745;SDS011;12053;48.878;9.632;2022-09-09T06:56:21;6.10;;;1.10;;
23745;SDS011;12053;48.878;9.632;2022-09-09T06:58:52;3.65;;;1.17;;
23745;SDS011;12053;48.878;9.632;2022-09-09T07:01:21;5.75;;;1.30;;
23745;SDS011;12053;48.878;9.632;2022-09-09T07:03:50;2.30;;;1.02;;
23745;SDS011;12053;48.878;9.632;2022-09-09T07:06:18;4.50;;;1.30;;
23745;SDS011;12053;48.878;9.632;2022-09-09T07:08:52;3.22;;;0.90;;
23745;SDS011;12053;48.878;9.632;2022-09-09T07:11:22;4.97;;;1.50;;
23745;SDS011;12053;48.878;9.632;2022-09-09T07:13:50;2.50;;;0.93;;
23745;SDS011;12053;48.878;9.632;2022-09-09T07:16:17;2.83;;;1.20;;
23745;SDS011;12053;48.878;9.632;2022-09-09T07:18:45;2.67;;;0.93;;
23745;SDS011;12053;48.878;9.632;2022-09-09T07:21:13;3.38;;;1.15;;
23745;SDS011;12053;48.878;9.632;2022-09-09T07:23:41;2.78;;;1.15;;
23745;SDS011;12053;48.878;9.632;2022-09-09T07:26:15;2.50;;;1.23;;
23745;SDS011;12053;48.878;9.632;2022-09-09T07:28:43;2.17;;;1.00;;
23745;SDS011;12053;48.878;9.632;2022-09-09T07:31:17;2.95;;;1.20;;
23745;SDS011;12053;48.878;9.632;2022-09-09T07:33:45;2.45;;;1.15;;
23745;SDS011;12053;48.878;9.632;2022-09-09T07:36:13;3.78;;;1.20;;
23745;SDS011;12053;48.878;9.632;2022-09-09T07:38:41;5.47;;;1.40;;
23745;SDS011;12053;48.878;9.632;2022-09-09T07:41:13;1.63;;;0.98;;
23745;SDS011;12053;48.878;9.632;2022-09-09T07:43:41;2.63;;;1.08;;
23745;SDS011;12053;48.878;9.632;2022-09-09T07:46:10;4.05;;;1.08;;
23745;SDS011;12053;48.878;9.632;2022-09-09T07:48:38;3.90;;;1.58;;
23745;SDS011;12053;48.878;9.632;2022-09-09T07:51:10;4.78;;;1.00;;
23745;SDS011;12053;48.878;9.632;2022-09-09T07:53:38;2.67;;;0.73;;
23745;SDS011;12053;48.878;9.632;2022-09-09T07:56:08;2.65;;;1.20;;
23745;SDS011;12053;48.878;9.632;2022-09-09T07:58:37;8.13;;;1.40;;
23745;SDS011;12053;48.878;9.632;2022-09-09T08:01:08;5.05;;;1.25;;
23745;SDS011;12053;48.878;9.632;2022-09-09T08:03:36;5.03;;;1.27;;
23745;SDS011;12053;48.878;9.632;2022-09-09T08:06:04;4.95;;;1.38;;
23745;SDS011;12053;48.878;9.632;2022-09-09T08:08:33;2.10;;;0.85;;
23745;SDS011;12053;48.878;9.632;2022-09-09T08:11:01;4.13;;;1.13;;
23745;SDS011;12053;48.878;9.632;2022-09-09T08:13:28;4.43;;;1.10;;
23745;SDS011;12053;48.878;9.632;2022-09-09T08:16:07;4.53;;;0.90;;
23745;SDS011;12053;48.878;9.632;2022-09-09T08:18:35;4.38;;;1.17;;
23745;SDS011;12053;48.878;9.632;2022-09-09T08:21:12;2.35;;;1.10;;
23745;SDS011;12053;48.878;9.632;2022-09-09T08:23:41;5.78;;;1.08;;
23745;SDS011;12053;48.878;9.632;2022-09-09T08:26:12;3.58;;;0.88;;
23745;SDS011;12053;48.878;9.632;2022-09-09T08:28:41;4.18;;;1.13;;
23745;SDS011;12053;48.878;9.632;2022-09-09T08:33:35;3.75;;;1.20;;
23745;SDS011;12053;48.878;9.632;2022-09-09T08:36:04;3.97;;;0.93;;
23745;SDS011;12053;48.878;9.632;2022-09-09T08:38:32;5.13;;;1.17;;
23745;SDS011;12053;48.878;9.632;2022-09-09T08:41:09;4.97;;;1.25;;
23745;SDS011;12053;48.878;9.632;2022-09-09T08:43:39;4.10;;;1.08;;
23745;SDS011;12053;48.878;9.632;2022-09-09T08:51:02;1.45;;;0.80;;
23745;SDS011;12053;48.878;9.632;2022-09-09T08:53:34;4.32;;;1.17;;
23745;SDS011;12053;48.878;9.632;2022-09-09T08:56:08;2.10;;;1.00;;
23745;SDS011;12053;48.878;9.632;2022-09-09T08:58:38;4.72;;;0.90;;
23745;SDS011;12053;48.878;9.632;2022-09-09T09:03:41;6.60;;;1.73;;
23745;SDS011;12053;48.878;9.632;2022-09-09T09:09:02;2.53;;;1.10;;
23745;SDS011;12053;48.878;9.632;2022-09-09T09:11:38;3.45;;;1.20;;
23745;SDS011;12053;48.878;9.632;2022-09-09T09:14:10;2.60;;;1.10;;
23745;SDS011;12053;48.878;9.632;2022-09-09T09:17:12;3.75;;;1.38;;
23745;SDS011;12053;48.878;9.632;2022-09-09T09:19:33;5.15;;;1.38;;
23745;SDS011;12053;48.878;9.632;2022-09-09T09:27:34;3.15;;;1.02;;
23745;SDS011;12053;48.878;9.632;2022-09-09T09:30:14;6.63;;;1.50;;
23745;SDS011;12053;48.878;9.632;2022-09-09T09:35:41;4.22;;;1.38;;
23745;SDS011;12053;48.878;9.632;2022-09-09T09:38:17;5.43;;;1.42;;
23745;SDS011;12053;48.878;9.632;2022-09-09T09:41:04;3.33;;;1.30;;
23745;SDS011;12053;48.878;9.632;2022-09-09T09:43:35;4.97;;;1.13;;
23745;SDS011;12053;48.878;9.632;2022-09-09T09:46:03;3.67;;;1.20;;
23745;SDS011;12053;48.878;9.632;2022-09-09T09:48:42;4.35;;;1.02;;
23745;SDS011;12053;48.878;9.632;2022-09-09T09:51:12;2.55;;;1.20;;
23745;SDS011;12053;48.878;9.632;2022-09-09T09:53:42;6.97;;;1.50;;
23745;SDS011;12053;48.878;9.632;2022-09-09T09:56:10;5.43;;;1.10;;
23745;SDS011;12053;48.878;9.632;2022-09-09T10:01:22;2.70;;;1.00;;
23745;SDS011;12053;48.878;9.632;2022-09-09T10:03:57;6.78;;;1.42;;
23745;SDS011;12053;48.878;9.632;2022-09-09T10:08:58;7.50;;;1.35;;
23745;SDS011;12053;48.878;9.632;2022-09-09T10:11:28;4.97;;;1.15;;
23745;SDS011;12053;48.878;9.632;2022-09-09T10:14:00;3.78;;;1.13;;
23745;SDS011;12053;48.878;9.632;2022-09-09T10:24:32;3.45;;;0.85;;
23745;SDS011;12053;48.878;9.632;2022-09-09T10:27:05;4.82;;;1.08;;
23745;SDS011;12053;48.878;9.632;2022-09-09T10:39:49;4.97;;;0.90;;
23745;SDS011;12053;48.878;9.632;2022-09-09T10:42:25;3.00;;;0.70;;
23745;SDS011;12053;48.878;9.632;2022-09-09T10:45:02;1.20;;;0.80;;
23745;SDS011;12053;48.878;9.632;2022-09-09T10:47:40;2.40;;;0.77;;
23745;SDS011;12053;48.878;9.632;2022-09-09T10:50:17;4.13;;;0.93;;
23745;SDS011;12053;48.878;9.632;2022-09-09T10:55:39;1.30;;;0.50;;
23745;SDS011;12053;48.878;9.632;2022-09-09T10:58:10;5.55;;;0.73;;
23745;SDS011;12053;48.878;9.632;2022-09-09T11:00:39;2.05;;;0.73;;
23745;SDS011;12053;48.878;9.632;2022-09-09T11:03:10;1.48;;;0.65;;
23745;SDS011;12053;48.878;9.632;2022-09-09T11:05:43;2.15;;;0.82;;
23745;SDS011;12053;48.878;9.632;2022-09-09T11:10:43;2.78;;;0.73;;
23745;SDS011;12053;48.878;9.632;2022-09-09T11:13:16;3.25;;;0.80;;
23745;SDS011;12053;48.878;9.632;2022-09-09T11:15:46;4.18;;;0.90;;
23745;SDS011;12053;48.878;9.632;2022-09-09T11:18:15;1.27;;;0.60;;
23745;SDS011;12053;48.878;9.632;2022-09-09T11:20:44;4.15;;;1.02;;
23745;SDS011;12053;48.878;9.632;2022-09-09T11:23:15;1.17;;;0.57;;
23745;SDS011;12053;48.878;9.632;2022-09-09T11:25:45;3.72;;;1.00;;
23745;SDS011;12053;48.878;9.632;2022-09-09T11:39:05;7.63;;;1.20;;
23745;SDS011;12053;48.878;9.632;2022-09-09T11:41:33;2.92;;;0.90;;
23745;SDS011;12053;48.878;9.632;2022-09-09T11:46:32;4.15;;;1.08;;
23745;SDS011;12053;48.878;9.632;2022-09-09T11:49:02;5.22;;;0.90;;
23745;SDS011;12053;48.878;9.632;2022-09-09T11:51:30;3.92;;;1.05;;
23745;SDS011;12053;48.878;9.632;2022-09-09T11:54:02;1.38;;;0.70;;
23745;SDS011;12053;48.878;9.632;2022-09-09T11:56:31;2.40;;;0.85;;
23745;SDS011;12053;48.878;9.632;2022-09-09T12:06:53;4.35;;;1.02;;
23745;SDS011;12053;48.878;9.632;2022-09-09T12:09:29;10.50;;;2.25;;
23745;SDS011;12053;48.878;9.632;2022-09-09T12:12:21;7.85;;;1.70;;
23745;SDS011;12053;48.878;9.632;2022-09-09T12:15:16;8.50;;;1.90;;
23745;SDS011;12053;48.878;9.632;2022-09-09T12:17:50;6.60;;;1.42;;
23745;SDS011;12053;48.878;9.632;2022-09-09T12:36:54;4.03;;;1.55;;
23745;SDS011;12053;48.878;9.632;2022-09-09T12:39:29;3.33;;;0.90;;
23745;SDS011;12053;48.878;9.632;2022-09-09T12:42:03;1.17;;;0.52;;
23745;SDS011;12053;48.878;9.632;2022-09-09T12:44:30;0.90;;;0.50;;
23745;SDS011;12053;48.878;9.632;2022-09-09T12:46:59;2.70;;;1.00;;
23745;SDS011;12053;48.878;9.632;2022-09-09T12:49:29;2.97;;;1.00;;
23745;SDS011;12053;48.878;9.632;2022-09-09T12:52:48;3.58;;;0.80;;
23745;SDS011;12053;48.878;9.632;2022-09-09T12:54:52;1.20;;;0.60;;
23745;SDS011;12053;48.878;9.632;2022-09-09T12:57:20;3.03;;;0.80;;
23745;SDS011;12053;48.878;9.632;2022-09-09T12:59:51;2.85;;;0.68;;
23745;SDS011;12053;48.878;9.632;2022-09-09T13:02:22;3.35;;;0.90;;
23745;SDS011;12053;48.878;9.632;2022-09-09T13:04:51;3.53;;;0.90;;
23745;SDS011;12053;48.878;9.632;2022-09-09T13:07:20;4.03;;;0.77;;
23745;SDS011;12053;48.878;9.632;2022-09-09T13:09:48;2.65;;;0.70;;
23745;SDS011;12053;48.878;9.632;2022-09-09T13:12:19;1.92;;;0.88;;
23745;SDS011;12053;48.878;9.632;2022-09-09T13:14:52;1.77;;;0.68;;
23745;SDS011;12053;48.878;9.632;2022-09-09T13:17:25;3.10;;;0.82;;
23745;SDS011;12053;48.878;9.632;2022-09-09T13:19:55;2.00;;;0.60;;
23745;SDS011;12053;48.878;9.632;2022-09-09T13:22:33;2.25;;;0.70;;
23745;SDS011;12053;48.878;9.632;2022-09-09T13:27:33;0.82;;;0.60;;
23745;SDS011;12053;48.878;9.632;2022-09-09T13:30:20;1.50;;;0.52;;
23745;SDS011;12053;48.878;9.632;2022-09-09T13:33:33;3.17;;;0.77;;
23745;SDS011;12053;48.878;9.632;2022-09-09T13:38:15;2.30;;;0.50;;
23745;SDS011;12053;48.878;9.632;2022-09-09T13:40:59;2.03;;;0.50;;
23745;SDS011;12053;48.878;9.632;2022-09-09T13:43:31;3.50;;;0.80;;
23745;SDS011;12053;48.878;9.632;2022-09-09T13:46:04;3.88;;;0.90;;
23745;SDS011;12053;48.878;9.632;2022-09-09T13:48:54;1.02;;;0.60;;
23745;SDS011;12053;48.878;9.632;2022-09-09T13:51:28;1.85;;;0.90;;
23745;SDS011;12053;48.878;9.632;2022-09-09T13:54:01;2.15;;;0.50;;
23745;SDS011;12053;48.878;9.632;2022-09-09T13:56:27;1.15;;;0.52;;
23745;SDS011;12053;48.878;9.632;2022-09-09T13:58:55;1.95;;;0.60;;
23745;SDS011;12053;48.878;9.632;2022-09-09T14:01:21;3.17;;;0.85;;
23745;SDS011;12053;48.878;9.632;2022-09-09T14:03:54;2.58;;;0.60;;
23745;SDS011;12053;48.878;9.632;2022-09-09T14:06:21;1.55;;;0.75;;
23745;SDS011;12053;48.878;9.632;2022-09-09T14:08:49;3.97;;;0.75;;
23745;SDS011;12053;48.878;9.632;2022-09-09T14:11:16;1.60;;;0.68;;
23745;SDS011;12053;48.878;9.632;2022-09-09T14:13:44;1.02;;;0.70;;
23745;SDS011;12053;48.878;9.632;2022-09-09T14:16:11;4.43;;;0.85;;
23745;SDS011;12053;48.878;9.632;2022-09-09T14:18:37;2.63;;;0.75;;
23745;SDS011;12053;48.878;9.632;2022-09-09T14:21:05;6.22;;;0.70;;
23745;SDS011;12053;48.878;9.632;2022-09-09T14:23:31;2.10;;;0.80;;
23745;SDS011;12053;48.878;9.632;2022-09-09T14:25:58;3.58;;;1.00;;
23745;SDS011;12053;48.878;9.632;2022-09-09T14:28:25;1.73;;;0.80;;
23745;SDS011;12053;48.878;9.632;2022-09-09T14:31:11;1.70;;;0.70;;
23745;SDS011;12053;48.878;9.632;2022-09-09T14:33:39;3.97;;;1.20;;
23745;SDS011;12053;48.878;9.632;2022-09-09T14:36:06;3.13;;;0.63;;
23745;SDS011;12053;48.878;9.632;2022-09-09T14:38:34;4.55;;;0.90;;
23745;SDS011;12053;48.878;9.632;2022-09-09T14:41:06;1.67;;;0.70;;
23745;SDS011;12053;48.878;9.632;2022-09-09T14:43:35;3.35;;;0.80;;
23745;SDS011;12053;48.878;9.632;2022-09-09T14:46:07;3.72;;;0.98;;
23745;SDS011;12053;48.878;9.632;2022-09-09T14:48:35;1.93;;;0.60;;
23745;SDS011;12053;48.878;9.632;2022-09-09T14:51:06;4.32;;;0.93;;
23745;SDS011;12053;48.878;9.632;2022-09-09T14:53:39;1.50;;;0.68;;
23745;SDS011;12053;48.878;9.632;2022-09-09T14:56:07;2.78;;;0.70;;
23745;SDS011;12053;48.878;9.632;2022-09-09T14:58:44;2.33;;;0.77;;
23745;SDS011;12053;48.878;9.632;2022-09-09T15:01:13;1.73;;;0.50;;
23745;SDS011;12053;48.878;9.632;2022-09-09T15:03:42;3.88;;;0.80;;
23745;SDS011;12053;48.878;9.632;2022-09-09T15:06:14;1.52;;;0.57;;
23745;SDS011;12053;48.878;9.632;2022-09-09T15:08:42;3.67;;;0.70;;
23745;SDS011;12053;48.878;9.632;2022-09-09T15:11:10;4.78;;;0.60;;
23745;SDS011;12053;48.878;9.632;2022-09-09T15:13:38;3.38;;;0.63;;
23745;SDS011;12053;48.878;9.632;2022-09-09T15:16:08;2.45;;;0.80;;
23745;SDS011;12053;48.878;9.632;2022-09-09T15:18:44;3.72;;;0.80;;
23745;SDS011;12053;48.878;9.632;2022-09-09T15:21:12;4.43;;;0.80;;
23745;SDS011;12053;48.878;9.632;2022-09-09T15:23:41;3.03;;;0.60;;
23745;SDS011;12053;48.878;9.632;2022-09-09T15:26:09;1.65;;;0.55;;
23745;SDS011;12053;48.878;9.632;2022-09-09T15:28:37;3.00;;;0.70;;
23745;SDS011;12053;48.878;9.632;2022-09-09T15:31:05;3.38;;;0.70;;
23745;SDS011;12053;48.878;9.632;2022-09-09T15:33:35;2.30;;;0.90;;
23745;SDS011;12053;48.878;9.632;2022-09-09T15:36:19;2.45;;;0.63;;
23745;SDS011;12053;48.878;9.632;2022-09-09T15:38:48;5.57;;;0.70;;
23745;SDS011;12053;48.878;9.632;2022-09-09T15:41:16;1.17;;;0.60;;
23745;SDS011;12053;48.878;9.632;2022-09-09T15:43:44;2.88;;;0.70;;
23745;SDS011;12053;48.878;9.632;2022-09-09T15:48:55;1.98;;;0.70;;
23745;SDS011;12053;48.878;9.632;2022-09-09T15:51:24;1.95;;;0.68;;
23745;SDS011;12053;48.878;9.632;2022-09-09T15:54:18;2.47;;;0.50;;
23745;SDS011;12053;48.878;9.632;2022-09-09T15:56:47;2.35;;;0.80;;
23745;SDS011;12053;48.878;9.632;2022-09-09T15:59:17;2.85;;;0.47;;
23745;SDS011;12053;48.878;9.632;2022-09-09T16:01:44;1.05;;;0.55;;
23745;SDS011;12053;48.878;9.632;2022-09-09T16:04:11;2.03;;;0.57;;
23745;SDS011;12053;48.878;9.632;2022-09-09T16:06:38;2.47;;;0.50;;
23745;SDS011;12053;48.878;9.632;2022-09-09T16:09:06;1.60;;;0.40;;
23745;SDS011;12053;48.878;9.632;2022-09-09T16:11:34;1.05;;;0.60;;
23745;SDS011;12053;48.878;9.632;2022-09-09T16:14:03;4.78;;;0.70;;
23745;SDS011;12053;48.878;9.632;2022-09-09T16:16:30;2.15;;;0.68;;
23745;SDS011;12053;48.878;9.632;2022-09-09T16:18:58;4.45;;;0.50;;
23745;SDS011;12053;48.878;9.632;2022-09-09T16:21:31;2.42;;;0.90;;
23745;SDS011;12053;48.878;9.632;2022-09-09T16:24:01;2.97;;;0.57;;
23745;SDS011;12053;48.878;9.632;2022-09-09T16:26:30;0.90;;;0.47;;
23745;SDS011;12053;48.878;9.632;2022-09-09T16:28:59;1.60;;;0.52;;
23745;SDS011;12053;48.878;9.632;2022-09-09T16:31:27;1.13;;;0.55;;
23745;SDS011;12053;48.878;9.632;2022-09-09T16:33:55;2.88;;;0.77;;
23745;SDS011;12053;48.878;9.632;2022-09-09T16:36:23;2.15;;;0.50;;
23745;SDS011;12053;48.878;9.632;2022-09-09T16:38:54;1.75;;;0.70;;
23745;SDS011;12053;48.878;9.632;2022-09-09T16:41:23;4.28;;;0.73;;
23745;SDS011;12053;48.878;9.632;2022-09-09T16:43:55;6.25;;;0.98;;
23745;SDS011;12053;48.878;9.632;2022-09-09T16:46:23;4.57;;;0.77;;
23745;SDS011;12053;48.878;9.632;2022-09-09T16:48:51;2.67;;;0.63;;
23745;SDS011;12053;48.878;9.632;2022-09-09T16:53:46;4.25;;;0.90;;
23745;SDS011;12053;48.878;9.632;2022-09-09T16:56:15;3.25;;;0.88;;
23745;SDS011;12053;48.878;9.632;2022-09-09T16:58:49;2.83;;;0.63;;
23745;SDS011;12053;48.878;9.632;2022-09-09T17:01:24;2.55;;;0.60;;
23745;SDS011;12053;48.878;9.632;2022-09-09T17:06:27;2.60;;;0.57;;
23745;SDS011;12053;48.878;9.632;2022-09-09T17:08:55;0.43;;;0.40;;
23745;SDS011;12053;48.878;9.632;2022-09-09T17:11:27;0.75;;;0.60;;
23745;SDS011;12053;48.878;9.632;2022-09-09T17:13:55;1.67;;;0.25;;
23745;SDS011;12053;48.878;9.632;2022-09-09T17:16:25;0.90;;;0.43;;
23745;SDS011;12053;48.878;9.632;2022-09-09T17:18:54;1.65;;;0.40;;
23745;SDS011;12053;48.878;9.632;2022-09-09T17:21:23;1.75;;;0.50;;
23745;SDS011;12053;48.878;9.632;2022-09-09T17:23:52;2.70;;;0.40;;
23745;SDS011;12053;48.878;9.632;2022-09-09T17:26:20;1.10;;;0.43;;
23745;SDS011;12053;48.878;9.632;2022-09-09T17:28:49;1.85;;;0.47;;
23745;SDS011;12053;48.878;9.632;2022-09-09T17:31:16;0.63;;;0.20;;
23745;SDS011;12053;48.878;9.632;2022-09-09T17:33:45;0.32;;;0.30;;